sensor_id;sensor_type;location;lat;lon;timestamp;temperature;humidity
20915;DHT22;10617;52.032;5.298;2022-12-08T00:02:52;4.80;99.90
20915;DHT22;10617;52.032;5.298;2022-12-08T00:06:53;4.80;99.90
20915;DHT22;10617;52.032;5.298;2022-12-08T00:11:14;4.80;99.90
20915;DHT22;10617;52.032;5.298;2022-12-08T00:15:16;4.70;99.90
20915;DHT22;10617;52.032;5.298;2022-12-08T00:19:18;4.70;99.90
20915;DHT22;10617;52.032;5.298;2022-12-08T00:23:19;4.70;99.90
20915;DHT22;10617;52.032;5.298;2022-12-08T00:27:21;4.70;99.90
20915;DHT22;10617;52.032;5.298;2022-12-08T00:31:22;4.70;99.90
20915;DHT22;10617;52.032;5.298;2022-12-08T00:35:24;4.70;99.90
20915;DHT22;10617;52.032;5.298;2022-12-08T00:39:26;4.70;99.90
20915;DHT22;10617;52.032;5.298;2022-12-08T00:43:27;4.70;99.90
20915;DHT22;10617;52.032;5.298;2022-12-08T00:47:29;4.70;99.90
20915;DHT22;10617;52.032;5.298;2022-12-08T00:51:31;4.70;99.90
20915;DHT22;10617;52.032;5.298;2022-12-08T00:55:33;4.70;99.90
20915;DHT22;10617;52.032;5.298;2022-12-08T00:59:34;4.70;99.90
20915;DHT22;10617;52.032;5.298;2022-12-08T01:03:36;4.60;99.90
20915;DHT22;10617;52.032;5.298;2022-12-08T01:07:38;4.60;99.90
20915;DHT22;10617;52.032;5.298;2022-12-08T01:11:39;4.50;99.90
20915;DHT22;10617;52.032;5.298;2022-12-08T01:15:41;4.50;99.90
20915;DHT22;10617;52.032;5.298;2022-12-08T01:19:43;4.50;99.90
20915;DHT22;10617;52.032;5.298;2022-12-08T01:23:44;4.40;99.90
20915;DHT22;10617;52.032;5.298;2022-12-08T01:27:46;4.40;99.90
20915;DHT22;10617;52.032;5.298;2022-12-08T01:31:48;4.40;99.90
20915;DHT22;10617;52.032;5.298;2022-12-08T01:35:50;4.50;99.90
20915;DHT22;10617;52.032;5.298;2022-12-08T01:39:52;4.50;99.90
20915;DHT22;10617;52.032;5.298;2022-12-08T01:48:02;4.50;99.90
20915;DHT22;10617;52.032;5.298;2022-12-08T01:52:10;4.50;99.90
20915;DHT22;10617;52.032;5.298;2022-12-08T01:56:17;4.50;99.90
20915;DHT22;10617;52.032;5.298;2022-12-08T02:00:21;4.50;99.90
20915;DHT22;10617;52.032;5.298;2022-12-08T02:04:23;4.50;99.90
20915;DHT22;10617;52.032;5.298;2022-12-08T02:08:24;4.50;99.90
20915;DHT22;10617;52.032;5.298;2022-12-08T02:12:27;4.50;99.90
20915;DHT22;10617;52.032;5.298;2022-12-08T02:20:53;4.50;99.90
20915;DHT22;10617;52.032;5.298;2022-12-08T02:24:59;4.50;99.90
20915;DHT22;10617;52.032;5.298;2022-12-08T02:39:43;4.50;99.90
20915;DHT22;10617;52.032;5.298;2022-12-08T02:43:47;4.50;99.90
20915;DHT22;10617;52.032;5.298;2022-12-08T02:47:51;4.50;99.90
20915;DHT22;10617;52.032;5.298;2022-12-08T02:52:03;4.50;99.90
20915;DHT22;10617;52.032;5.298;2022-12-08T03:00:22;4.50;99.90
20915;DHT22;10617;52.032;5.298;2022-12-08T03:04:29;4.50;99.90
20915;DHT22;10617;52.032;5.298;2022-12-08T03:08:48;4.50;99.90
20915;DHT22;10617;52.032;5.298;2022-12-08T03:12:53;4.50;99.90
20915;DHT22;10617;52.032;5.298;2022-12-08T03:16:58;4.50;99.90
20915;DHT22;10617;52.032;5.298;2022-12-08T03:21:01;4.40;99.90
20915;DHT22;10617;52.032;5.298;2022-12-08T03:25:03;4.40;99.90
20915;DHT22;10617;52.032;5.298;2022-12-08T03:29:05;4.40;99.90
20915;DHT22;10617;52.032;5.298;2022-12-08T03:37:15;4.40;99.90
20915;DHT22;10617;52.032;5.298;2022-12-08T03:41:17;4.40;99.90
20915;DHT22;10617;52.032;5.298;2022-12-08T03:45:19;4.40;99.90
20915;DHT22;10617;52.032;5.298;2022-12-08T03:49:20;4.40;99.90
20915;DHT22;10617;52.032;5.298;2022-12-08T03:53:22;4.40;99.90
20915;DHT22;10617;52.032;5.298;2022-12-08T03:57:23;4.40;99.90
20915;DHT22;10617;52.032;5.298;2022-12-08T04:01:25;4.40;99.90
20915;DHT22;10617;52.032;5.298;2022-12-08T04:05:27;4.40;99.90
20915;DHT22;10617;52.032;5.298;2022-12-08T04:09:29;4.40;99.90
20915;DHT22;10617;52.032;5.298;2022-12-08T04:13:32;4.50;99.90
20915;DHT22;10617;52.032;5.298;2022-12-08T04:17:33;4.50;99.90
20915;DHT22;10617;52.032;5.298;2022-12-08T04:21:35;4.50;99.90
20915;DHT22;10617;52.032;5.298;2022-12-08T04:25:37;4.50;99.90
20915;DHT22;10617;52.032;5.298;2022-12-08T04:29:38;4.50;99.90
20915;DHT22;10617;52.032;5.298;2022-12-08T04:33:40;4.50;99.90
20915;DHT22;10617;52.032;5.298;2022-12-08T04:37:42;4.50;99.90
20915;DHT22;10617;52.032;5.298;2022-12-08T04:41:44;4.40;99.90
20915;DHT22;10617;52.032;5.298;2022-12-08T04:45:46;4.40;99.90
20915;DHT22;10617;52.032;5.298;2022-12-08T04:49:48;4.30;99.90
20915;DHT22;10617;52.032;5.298;2022-12-08T04:53:49;4.30;99.90
20915;DHT22;10617;52.032;5.298;2022-12-08T04:57:51;4.20;99.90
20915;DHT22;10617;52.032;5.298;2022-12-08T05:01:52;4.10;99.90
20915;DHT22;10617;52.032;5.298;2022-12-08T05:05:54;4.00;99.90
20915;DHT22;10617;52.032;5.298;2022-12-08T05:09:56;3.90;99.90
20915;DHT22;10617;52.032;5.298;2022-12-08T05:13:58;3.90;99.90
20915;DHT22;10617;52.032;5.298;2022-12-08T05:17:59;4.00;99.90
20915;DHT22;10617;52.032;5.298;2022-12-08T05:22:01;4.00;99.90
20915;DHT22;10617;52.032;5.298;2022-12-08T05:26:03;4.00;99.90
20915;DHT22;10617;52.032;5.298;2022-12-08T05:30:05;4.00;99.90
20915;DHT22;10617;52.032;5.298;2022-12-08T05:34:09;4.00;99.90
20915;DHT22;10617;52.032;5.298;2022-12-08T05:38:10;4.00;99.90
20915;DHT22;10617;52.032;5.298;2022-12-08T05:42:12;4.00;99.90
20915;DHT22;10617;52.032;5.298;2022-12-08T05:46:13;4.00;99.90
20915;DHT22;10617;52.032;5.298;2022-12-08T05:50:15;4.00;99.90
20915;DHT22;10617;52.032;5.298;2022-12-08T05:54:17;4.00;99.90
20915;DHT22;10617;52.032;5.298;2022-12-08T05:58:19;4.00;99.90
20915;DHT22;10617;52.032;5.298;2022-12-08T06:02:21;4.00;99.90
20915;DHT22;10617;52.032;5.298;2022-12-08T06:06:23;4.00;99.90
20915;DHT22;10617;52.032;5.298;2022-12-08T06:10:25;4.00;99.90
20915;DHT22;10617;52.032;5.298;2022-12-08T06:14:26;4.00;99.90
20915;DHT22;10617;52.032;5.298;2022-12-08T06:18:28;3.90;99.90
20915;DHT22;10617;52.032;5.298;2022-12-08T06:22:33;3.80;99.90
20915;DHT22;10617;52.032;5.298;2022-12-08T06:26:35;3.80;99.90
20915;DHT22;10617;52.032;5.298;2022-12-08T06:30:36;3.80;99.90
20915;DHT22;10617;52.032;5.298;2022-12-08T06:34:38;3.80;99.90
20915;DHT22;10617;52.032;5.298;2022-12-08T06:38:40;3.80;99.90
20915;DHT22;10617;52.032;5.298;2022-12-08T06:42:44;3.70;99.90
20915;DHT22;10617;52.032;5.298;2022-12-08T06:46:46;3.70;99.90
20915;DHT22;10617;52.032;5.298;2022-12-08T06:50:48;3.70;99.90
20915;DHT22;10617;52.032;5.298;2022-12-08T06:54:50;3.60;99.90
20915;DHT22;10617;52.032;5.298;2022-12-08T06:58:51;3.60;99.90
20915;DHT22;10617;52.032;5.298;2022-12-08T07:02:53;3.50;99.90
20915;DHT22;10617;52.032;5.298;2022-12-08T07:06:55;3.50;99.90
20915;DHT22;10617;52.032;5.298;2022-12-08T07:10:57;3.40;99.90
20915;DHT22;10617;52.032;5.298;2022-12-08T07:14:58;3.40;99.90
20915;DHT22;10617;52.032;5.298;2022-12-08T07:19:00;3.40;99.90
20915;DHT22;10617;52.032;5.298;2022-12-08T07:23:02;3.30;99.90
20915;DHT22;10617;52.032;5.298;2022-12-08T07:27:04;3.30;99.90
20915;DHT22;10617;52.032;5.298;2022-12-08T07:31:05;3.30;99.90
20915;DHT22;10617;52.032;5.298;2022-12-08T07:35:08;3.30;99.90
20915;DHT22;10617;52.032;5.298;2022-12-08T07:39:10;3.20;99.90
20915;DHT22;10617;52.032;5.298;2022-12-08T07:43:11;3.20;99.90
20915;DHT22;10617;52.032;5.298;2022-12-08T07:47:13;3.20;99.90
20915;DHT22;10617;52.032;5.298;2022-12-08T07:51:15;3.20;99.90
20915;DHT22;10617;52.032;5.298;2022-12-08T07:55:17;3.10;99.90
20915;DHT22;10617;52.032;5.298;2022-12-08T07:59:18;3.10;99.90
20915;DHT22;10617;52.032;5.298;2022-12-08T08:03:20;3.10;99.90
20915;DHT22;10617;52.032;5.298;2022-12-08T08:07:22;3.10;99.90
20915;DHT22;10617;52.032;5.298;2022-12-08T08:11:24;3.00;99.90
20915;DHT22;10617;52.032;5.298;2022-12-08T08:15:26;3.00;99.90
20915;DHT22;10617;52.032;5.298;2022-12-08T08:19:28;3.00;99.90
20915;DHT22;10617;52.032;5.298;2022-12-08T08:23:29;3.00;99.90
20915;DHT22;10617;52.032;5.298;2022-12-08T08:27:31;3.00;99.90
20915;DHT22;10617;52.032;5.298;2022-12-08T08:31:33;3.00;99.90
20915;DHT22;10617;52.032;5.298;2022-12-08T08:35:34;3.00;99.90
20915;DHT22;10617;52.032;5.298;2022-12-08T08:39:36;3.00;99.90
20915;DHT22;10617;52.032;5.298;2022-12-08T08:43:38;3.00;99.90
20915;DHT22;10617;52.032;5.298;2022-12-08T08:47:40;3.00;99.90
20915;DHT22;10617;52.032;5.298;2022-12-08T08:51:42;3.00;99.90
20915;DHT22;10617;52.032;5.298;2022-12-08T08:55:44;3.00;99.90
20915;DHT22;10617;52.032;5.298;2022-12-08T08:59:45;3.00;99.90
20915;DHT22;10617;52.032;5.298;2022-12-08T09:03:47;3.10;99.90
20915;DHT22;10617;52.032;5.298;2022-12-08T09:07:49;3.10;99.90
20915;DHT22;10617;52.032;5.298;2022-12-08T09:11:51;3.10;99.90
20915;DHT22;10617;52.032;5.298;2022-12-08T09:15:52;3.20;99.90
20915;DHT22;10617;52.032;5.298;2022-12-08T09:29:40;3.30;99.90
20915;DHT22;10617;52.032;5.298;2022-12-08T09:33:42;3.30;99.90
20915;DHT22;10617;52.032;5.298;2022-12-08T09:37:43;3.40;99.90
20915;DHT22;10617;52.032;5.298;2022-12-08T09:41:47;3.40;99.90
20915;DHT22;10617;52.032;5.298;2022-12-08T09:45:52;3.40;99.90
20915;DHT22;10617;52.032;5.298;2022-12-08T09:49:59;3.50;99.90
20915;DHT22;10617;52.032;5.298;2022-12-08T09:54:10;3.50;99.90
20915;DHT22;10617;52.032;5.298;2022-12-08T09:58:19;3.50;99.90
20915;DHT22;10617;52.032;5.298;2022-12-08T10:02:23;3.60;99.90
20915;DHT22;10617;52.032;5.298;2022-12-08T10:10:37;3.70;99.90
20915;DHT22;10617;52.032;5.298;2022-12-08T10:23:48;3.80;99.90
20915;DHT22;10617;52.032;5.298;2022-12-08T10:27:51;3.80;99.90
20915;DHT22;10617;52.032;5.298;2022-12-08T10:31:54;3.80;99.90
20915;DHT22;10617;52.032;5.298;2022-12-08T10:35:58;3.80;99.90
20915;DHT22;10617;52.032;5.298;2022-12-08T10:44:13;3.70;99.90
20915;DHT22;10617;52.032;5.298;2022-12-08T10:48:20;3.70;99.90
20915;DHT22;10617;52.032;5.298;2022-12-08T10:52:23;3.70;99.90
20915;DHT22;10617;52.032;5.298;2022-12-08T10:56:28;3.70;99.90
20915;DHT22;10617;52.032;5.298;2022-12-08T11:00:30;3.70;99.90
20915;DHT22;10617;52.032;5.298;2022-12-08T11:04:33;3.70;99.90
20915;DHT22;10617;52.032;5.298;2022-12-08T11:08:43;3.60;99.90
20915;DHT22;10617;52.032;5.298;2022-12-08T11:12:47;3.60;99.90
20915;DHT22;10617;52.032;5.298;2022-12-08T11:16:50;3.60;99.90
20915;DHT22;10617;52.032;5.298;2022-12-08T11:20:59;3.70;99.90
20915;DHT22;10617;52.032;5.298;2022-12-08T11:25:07;3.70;99.90
20915;DHT22;10617;52.032;5.298;2022-12-08T11:29:11;3.70;99.90
20915;DHT22;10617;52.032;5.298;2022-12-08T11:33:20;3.70;99.90
20915;DHT22;10617;52.032;5.298;2022-12-08T11:37:24;3.70;99.90
20915;DHT22;10617;52.032;5.298;2022-12-08T11:41:34;3.70;99.90
20915;DHT22;10617;52.032;5.298;2022-12-08T11:45:37;3.70;99.90
20915;DHT22;10617;52.032;5.298;2022-12-08T11:49:40;3.60;99.90
20915;DHT22;10617;52.032;5.298;2022-12-08T11:57:47;3.50;99.90
20915;DHT22;10617;52.032;5.298;2022-12-08T12:01:49;3.50;99.90
20915;DHT22;10617;52.032;5.298;2022-12-08T12:05:55;3.50;99.90
20915;DHT22;10617;52.032;5.298;2022-12-08T12:18:52;3.50;99.90
20915;DHT22;10617;52.032;5.298;2022-12-08T12:23:04;3.60;99.90
20915;DHT22;10617;52.032;5.298;2022-12-08T12:27:18;3.60;99.90
20915;DHT22;10617;52.032;5.298;2022-12-08T12:31:22;3.60;99.90
20915;DHT22;10617;52.032;5.298;2022-12-08T12:39:28;3.80;99.90
20915;DHT22;10617;52.032;5.298;2022-12-08T12:43:31;3.90;99.90
20915;DHT22;10617;52.032;5.298;2022-12-08T12:48:19;4.00;99.90
20915;DHT22;10617;52.032;5.298;2022-12-08T12:52:01;4.70;99.90
20915;DHT22;10617;52.032;5.298;2022-12-08T12:56:03;5.70;99.90
20915;DHT22;10617;52.032;5.298;2022-12-08T13:00:15;6.40;99.90
20915;DHT22;10617;52.032;5.298;2022-12-08T13:04:17;7.20;99.90
20915;DHT22;10617;52.032;5.298;2022-12-08T13:12:22;7.40;99.90
20915;DHT22;10617;52.032;5.298;2022-12-08T13:16:24;6.90;99.90
20915;DHT22;10617;52.032;5.298;2022-12-08T13:20:27;6.40;99.90
20915;DHT22;10617;52.032;5.298;2022-12-08T13:24:32;5.90;99.90
20915;DHT22;10617;52.032;5.298;2022-12-08T13:32:56;5.30;99.90
20915;DHT22;10617;52.032;5.298;2022-12-08T13:37:30;5.10;99.90
20915;DHT22;10617;52.032;5.298;2022-12-08T13:41:37;5.00;99.90
20915;DHT22;10617;52.032;5.298;2022-12-08T13:45:41;5.00;99.90
20915;DHT22;10617;52.032;5.298;2022-12-08T13:50:16;5.00;99.90
20915;DHT22;10617;52.032;5.298;2022-12-08T13:54:39;5.00;99.90
20915;DHT22;10617;52.032;5.298;2022-12-08T14:03:21;5.20;99.90
20915;DHT22;10617;52.032;5.298;2022-12-08T14:07:23;5.30;99.90
20915;DHT22;10617;52.032;5.298;2022-12-08T14:11:26;5.20;99.90
20915;DHT22;10617;52.032;5.298;2022-12-08T14:15:34;5.00;99.90
20915;DHT22;10617;52.032;5.298;2022-12-08T14:19:41;4.80;99.90
20915;DHT22;10617;52.032;5.298;2022-12-08T14:23:43;4.70;99.90
20915;DHT22;10617;52.032;5.298;2022-12-08T14:27:44;4.60;99.90
20915;DHT22;10617;52.032;5.298;2022-12-08T14:31:46;4.60;99.90
20915;DHT22;10617;52.032;5.298;2022-12-08T14:35:49;4.50;99.90
20915;DHT22;10617;52.032;5.298;2022-12-08T14:39:51;4.40;99.90
20915;DHT22;10617;52.032;5.298;2022-12-08T14:44:00;4.40;99.90
20915;DHT22;10617;52.032;5.298;2022-12-08T14:52:22;4.40;99.90
20915;DHT22;10617;52.032;5.298;2022-12-08T14:56:26;4.30;99.90
20915;DHT22;10617;52.032;5.298;2022-12-08T15:00:28;4.30;99.90
20915;DHT22;10617;52.032;5.298;2022-12-08T15:04:30;4.30;99.90
20915;DHT22;10617;52.032;5.298;2022-12-08T15:08:33;4.30;99.90
20915;DHT22;10617;52.032;5.298;2022-12-08T15:12:34;4.30;99.90
20915;DHT22;10617;52.032;5.298;2022-12-08T15:16:37;4.30;99.90
20915;DHT22;10617;52.032;5.298;2022-12-08T15:24:44;4.20;99.90
20915;DHT22;10617;52.032;5.298;2022-12-08T15:28:46;4.20;99.90
20915;DHT22;10617;52.032;5.298;2022-12-08T15:32:47;4.10;99.90
20915;DHT22;10617;52.032;5.298;2022-12-08T15:36:53;4.10;99.90
20915;DHT22;10617;52.032;5.298;2022-12-08T15:40:55;4.10;99.90
20915;DHT22;10617;52.032;5.298;2022-12-08T15:44:59;4.00;99.90
20915;DHT22;10617;52.032;5.298;2022-12-08T15:49:00;3.90;99.90
20915;DHT22;10617;52.032;5.298;2022-12-08T15:53:02;3.80;99.90
20915;DHT22;10617;52.032;5.298;2022-12-08T15:57:04;3.80;99.90
20915;DHT22;10617;52.032;5.298;2022-12-08T16:01:25;3.70;99.90
20915;DHT22;10617;52.032;5.298;2022-12-08T16:05:28;3.60;99.90
20915;DHT22;10617;52.032;5.298;2022-12-08T16:09:50;3.60;99.90
20915;DHT22;10617;52.032;5.298;2022-12-08T16:28:25;3.50;99.90
20915;DHT22;10617;52.032;5.298;2022-12-08T16:32:47;3.60;99.90
20915;DHT22;10617;52.032;5.298;2022-12-08T16:36:49;3.60;99.90
20915;DHT22;10617;52.032;5.298;2022-12-08T16:46:02;3.40;99.90
20915;DHT22;10617;52.032;5.298;2022-12-08T16:50:05;3.40;99.90
20915;DHT22;10617;52.032;5.298;2022-12-08T16:54:07;3.30;99.90
20915;DHT22;10617;52.032;5.298;2022-12-08T16:58:08;3.30;99.90
20915;DHT22;10617;52.032;5.298;2022-12-08T17:02:10;3.30;99.90
20915;DHT22;10617;52.032;5.298;2022-12-08T17:06:16;3.30;99.90
20915;DHT22;10617;52.032;5.298;2022-12-08T17:10:20;3.20;99.90
20915;DHT22;10617;52.032;5.298;2022-12-08T17:14:23;3.20;99.90
20915;DHT22;10617;52.032;5.298;2022-12-08T17:18:25;3.10;99.90
20915;DHT22;10617;52.032;5.298;2022-12-08T17:22:26;3.00;99.90
20915;DHT22;10617;52.032;5.298;2022-12-08T17:26:28;3.00;99.90
20915;DHT22;10617;52.032;5.298;2022-12-08T17:30:29;2.90;99.90
20915;DHT22;10617;52.032;5.298;2022-12-08T17:34:31;2.90;99.90
20915;DHT22;10617;52.032;5.298;2022-12-08T17:38:33;2.80;99.90
20915;DHT22;10617;52.032;5.298;2022-12-08T17:42:34;2.70;99.90
20915;DHT22;10617;52.032;5.298;2022-12-08T17:46:36;2.70;99.90
20915;DHT22;10617;52.032;5.298;2022-12-08T17:50:43;2.60;99.90
20915;DHT22;10617;52.032;5.298;2022-12-08T17:54:44;2.60;99.90
20915;DHT22;10617;52.032;5.298;2022-12-08T17:58:46;2.60;99.90
20915;DHT22;10617;52.032;5.298;2022-12-08T18:02:55;2.50;99.90
20915;DHT22;10617;52.032;5.298;2022-12-08T18:06:57;2.50;99.90
20915;DHT22;10617;52.032;5.298;2022-12-08T18:11:01;2.50;99.90
20915;DHT22;10617;52.032;5.298;2022-12-08T18:15:04;2.50;99.90
20915;DHT22;10617;52.032;5.298;2022-12-08T18:19:06;2.50;99.90
20915;DHT22;10617;52.032;5.298;2022-12-08T18:23:08;2.50;99.90
20915;DHT22;10617;52.032;5.298;2022-12-08T18:27:09;2.40;99.90
20915;DHT22;10617;52.032;5.298;2022-12-08T18:31:12;2.40;99.90
20915;DHT22;10617;52.032;5.298;2022-12-08T18:35:14;2.40;99.90
20915;DHT22;10617;52.032;5.298;2022-12-08T18:49:23;2.20;99.90
20915;DHT22;10617;52.032;5.298;2022-12-08T18:53:26;2.20;99.90
20915;DHT22;10617;52.032;5.298;2022-12-08T18:57:28;2.20;99.90
20915;DHT22;10617;52.032;5.298;2022-12-08T19:06:37;2.30;99.90
20915;DHT22;10617;52.032;5.298;2022-12-08T19:10:40;2.30;99.90
20915;DHT22;10617;52.032;5.298;2022-12-08T19:14:41;2.20;99.90
20915;DHT22;10617;52.032;5.298;2022-12-08T19:18:43;2.20;99.90
20915;DHT22;10617;52.032;5.298;2022-12-08T19:32:52;2.20;99.90
20915;DHT22;10617;52.032;5.298;2022-12-08T19:36:54;2.20;99.90
20915;DHT22;10617;52.032;5.298;2022-12-08T19:40:56;2.20;99.90
20915;DHT22;10617;52.032;5.298;2022-12-08T19:45:17;2.30;99.90
20915;DHT22;10617;52.032;5.298;2022-12-08T19:49:20;2.20;99.90
20915;DHT22;10617;52.032;5.298;2022-12-08T19:53:22;2.20;99.90
20915;DHT22;10617;52.032;5.298;2022-12-08T19:57:24;2.20;99.90
20915;DHT22;10617;52.032;5.298;2022-12-08T20:01:26;2.10;99.90
20915;DHT22;10617;52.032;5.298;2022-12-08T20:05:28;2.10;99.90
20915;DHT22;10617;52.032;5.298;2022-12-08T20:09:30;2.20;99.90
20915;DHT22;10617;52.032;5.298;2022-12-08T20:13:32;2.20;99.90
20915;DHT22;10617;52.032;5.298;2022-12-08T20:17:46;2.20;99.90
20915;DHT22;10617;52.032;5.298;2022-12-08T20:21:47;2.20;99.90
20915;DHT22;10617;52.032;5.298;2022-12-08T20:25:49;2.20;99.90
20915;DHT22;10617;52.032;5.298;2022-12-08T20:29:51;2.20;99.90
20915;DHT22;10617;52.032;5.298;2022-12-08T20:33:53;2.20;99.90
20915;DHT22;10617;52.032;5.298;2022-12-08T20:37:54;2.20;99.90
20915;DHT22;10617;52.032;5.298;2022-12-08T20:41:56;2.30;99.90
20915;DHT22;10617;52.032;5.298;2022-12-08T20:45:59;2.30;99.90
20915;DHT22;10617;52.032;5.298;2022-12-08T20:50:00;2.40;99.90
20915;DHT22;10617;52.032;5.298;2022-12-08T20:54:02;2.50;99.90
20915;DHT22;10617;52.032;5.298;2022-12-08T20:58:05;2.50;99.90
20915;DHT22;10617;52.032;5.298;2022-12-08T21:02:08;2.60;99.90
20915;DHT22;10617;52.032;5.298;2022-12-08T21:06:10;2.70;99.90
20915;DHT22;10617;52.032;5.298;2022-12-08T21:10:12;2.70;99.90
20915;DHT22;10617;52.032;5.298;2022-12-08T21:14:13;2.70;99.90
20915;DHT22;10617;52.032;5.298;2022-12-08T21:18:15;2.80;99.90
20915;DHT22;10617;52.032;5.298;2022-12-08T21:22:17;2.80;99.90
20915;DHT22;10617;52.032;5.298;2022-12-08T21:26:19;2.80;99.90
20915;DHT22;10617;52.032;5.298;2022-12-08T21:30:22;2.80;99.90
20915;DHT22;10617;52.032;5.298;2022-12-08T21:39:26;2.80;99.90
20915;DHT22;10617;52.032;5.298;2022-12-08T21:43:28;2.80;99.90
20915;DHT22;10617;52.032;5.298;2022-12-08T21:47:30;2.80;99.90
20915;DHT22;10617;52.032;5.298;2022-12-08T21:51:32;2.80;99.90
20915;DHT22;10617;52.032;5.298;2022-12-08T21:55:35;2.80;99.90
20915;DHT22;10617;52.032;5.298;2022-12-08T21:59:37;2.80;99.90
20915;DHT22;10617;52.032;5.298;2022-12-08T22:03:39;2.90;99.90
20915;DHT22;10617;52.032;5.298;2022-12-08T22:07:41;2.90;99.90
20915;DHT22;10617;52.032;5.298;2022-12-08T22:11:42;2.90;99.90
20915;DHT22;10617;52.032;5.298;2022-12-08T22:15:44;3.00;99.90
20915;DHT22;10617;52.032;5.298;2022-12-08T22:24:49;3.00;99.90
20915;DHT22;10617;52.032;5.298;2022-12-08T22:28:51;3.10;99.90
20915;DHT22;10617;52.032;5.298;2022-12-08T22:32:53;3.10;99.90
20915;DHT22;10617;52.032;5.298;2022-12-08T22:36:55;3.10;99.90
20915;DHT22;10617;52.032;5.298;2022-12-08T22:40:56;3.10;99.90
20915;DHT22;10617;52.032;5.298;2022-12-08T22:44:58;3.10;99.90
20915;DHT22;10617;52.032;5.298;2022-12-08T22:49:00;3.10;99.90
20915;DHT22;10617;52.032;5.298;2022-12-08T22:53:02;3.10;99.90
20915;DHT22;10617;52.032;5.298;2022-12-08T22:57:03;3.10;99.90
20915;DHT22;10617;52.032;5.298;2022-12-08T23:01:06;3.10;99.90
20915;DHT22;10617;52.032;5.298;2022-12-08T23:05:08;3.10;99.90
20915;DHT22;10617;52.032;5.298;2022-12-08T23:09:10;3.20;99.90
20915;DHT22;10617;52.032;5.298;2022-12-08T23:13:12;3.10;99.90
20915;DHT22;10617;52.032;5.298;2022-12-08T23:17:14;3.20;99.90
20915;DHT22;10617;52.032;5.298;2022-12-08T23:21:17;3.20;99.90
20915;DHT22;10617;52.032;5.298;2022-12-08T23:25:19;3.20;99.90
20915;DHT22;10617;52.032;5.298;2022-12-08T23:29:20;3.20;99.90
20915;DHT22;10617;52.032;5.298;2022-12-08T23:33:22;3.20;99.90
20915;DHT22;10617;52.032;5.298;2022-12-08T23:37:24;3.20;99.90
20915;DHT22;10617;52.032;5.298;2022-12-08T23:41:25;3.20;99.90
20915;DHT22;10617;52.032;5.298;2022-12-08T23:45:27;3.20;99.90
20915;DHT22;10617;52.032;5.298;2022-12-08T23:49:29;3.20;99.90
20915;DHT22;10617;52.032;5.298;2022-12-08T23:53:31;3.20;99.90
20915;DHT22;10617;52.032;5.298;2022-12-08T23:57:34;3.20;99.90
